createdAt,value
2019-01-13T00:01:57.921Z,99268.73
2019-01-13T00:04:25.538Z,99267.56
2019-01-13T00:06:53.515Z,99272.68
2019-01-13T00:09:21.479Z,99264.20
2019-01-13T00:11:49.448Z,99268.73
2019-01-13T00:14:17.421Z,99256.63
2019-01-13T00:16:45.392Z,99257.73
2019-01-13T00:19:13.356Z,99259.67
2019-01-13T00:21:41.312Z,99262.23
2019-01-13T00:24:09.238Z,99256.67
2019-01-13T00:26:37.161Z,99258.83
2019-01-13T00:29:04.789Z,99260.77
2019-01-13T00:31:32.416Z,99266.39
2019-01-13T00:34:00.047Z,99261.68
2019-01-13T00:36:28.018Z,99257.91
2019-01-13T00:38:55.987Z,99260.47
2019-01-13T00:41:23.977Z,99261.82
2019-01-13T00:43:51.598Z,99272.56
2019-01-13T00:46:19.590Z,99268.95
2019-01-13T00:48:47.214Z,99274.21
2019-01-13T00:51:15.117Z,99265.11
2019-01-13T00:53:43.089Z,99263.83
2019-01-13T00:56:10.715Z,99261.05
2019-01-13T00:58:38.332Z,99266.98
2019-01-13T01:01:06.279Z,99265.55
2019-01-13T01:03:34.249Z,99260.17
2019-01-13T01:06:02.216Z,99263.61
2019-01-13T01:08:30.191Z,99262.11
2019-01-13T01:10:57.827Z,99249.72
2019-01-13T01:13:25.717Z,99252.34
2019-01-13T01:15:53.683Z,99245.07
2019-01-13T01:18:21.660Z,99240.74
2019-01-13T01:20:49.283Z,99244.55
2019-01-13T01:23:16.909Z,99247.72
2019-01-13T01:25:44.850Z,99249.58
2019-01-13T01:28:12.816Z,99242.60
2019-01-13T01:30:40.442Z,99242.67
2019-01-13T01:33:08.076Z,99242.50
2019-01-13T01:35:35.693Z,99236.17
2019-01-13T01:38:03.319Z,99227.47
2019-01-13T01:40:30.940Z,99233.47
2019-01-13T01:42:58.903Z,99233.03
2019-01-13T01:45:26.867Z,99232.33
2019-01-13T01:47:54.835Z,99238.20
2019-01-13T01:50:22.459Z,99235.62
2019-01-13T01:52:50.361Z,99239.17
2019-01-13T01:55:18.333Z,99232.03
2019-01-13T01:57:45.961Z,99232.54
2019-01-13T02:00:13.868Z,99242.84
2019-01-13T02:02:41.836Z,99233.98
2019-01-13T02:05:09.465Z,99230.55
2019-01-13T02:07:37.362Z,99220.55
2019-01-13T02:10:05.331Z,99229.92
2019-01-13T02:12:33.315Z,99240.89
2019-01-13T02:15:00.934Z,99221.66
2019-01-13T02:17:28.830Z,99231.70
2019-01-13T02:19:56.451Z,99239.75
2019-01-13T02:22:24.363Z,99234.33
2019-01-13T02:24:52.328Z,99224.90
2019-01-13T02:27:19.958Z,99230.70
2019-01-13T02:29:47.862Z,99232.38
2019-01-13T02:32:15.847Z,99229.02
2019-01-13T02:34:43.806Z,99228.84
2019-01-13T02:37:11.777Z,99222.84
2019-01-13T02:39:39.753Z,99221.06
2019-01-13T02:42:07.705Z,99218.44
2019-01-13T02:44:35.580Z,99210.34
2019-01-13T02:47:03.208Z,99223.34
2019-01-13T02:49:30.834Z,99196.23
2019-01-13T02:51:58.793Z,99206.47
2019-01-13T02:54:26.401Z,99209.67
2019-01-13T02:56:54.300Z,99215.20
2019-01-13T02:59:22.284Z,99209.27
2019-01-13T03:01:49.914Z,99224.26
2019-01-13T03:04:17.817Z,99231.09
2019-01-13T03:06:45.447Z,99226.41
2019-01-13T03:09:13.347Z,99218.93
2019-01-13T03:11:40.960Z,99213.47
2019-01-13T03:14:08.586Z,99207.87
2019-01-13T03:16:36.518Z,99208.17
2019-01-13T03:19:04.487Z,99207.44
2019-01-13T03:21:32.463Z,99207.94
2019-01-13T03:24:00.453Z,99201.08
2019-01-13T03:26:28.074Z,99196.80
2019-01-13T03:28:55.704Z,99202.63
2019-01-13T03:31:23.624Z,99207.61
2019-01-13T03:33:51.590Z,99208.16
2019-01-13T03:36:19.564Z,99201.18
2019-01-13T03:38:47.533Z,99202.56
2019-01-13T03:41:15.499Z,99197.67
2019-01-13T03:43:43.128Z,99205.02
2019-01-13T03:46:10.822Z,99216.71
2019-01-13T03:48:38.794Z,99211.59
2019-01-13T03:51:06.763Z,99207.28
2019-01-13T03:53:34.747Z,99206.60
2019-01-13T03:56:02.711Z,99209.60
2019-01-13T03:58:30.673Z,99211.72
2019-01-13T04:00:58.289Z,99201.18
2019-01-13T04:03:26.209Z,99204.21
2019-01-13T04:05:53.829Z,99198.22
2019-01-13T04:08:21.532Z,99198.55
2019-01-13T04:10:49.157Z,99194.98
2019-01-13T04:13:17.055Z,99197.51
2019-01-13T04:15:45.044Z,99196.09
2019-01-13T04:18:12.995Z,99193.30
2019-01-13T04:20:40.621Z,99185.45
2019-01-13T04:23:08.524Z,99182.82
2019-01-13T04:25:36.511Z,99182.92
2019-01-13T04:28:04.468Z,99183.39
2019-01-13T04:30:32.085Z,99184.91
2019-01-13T04:32:59.996Z,99189.56
2019-01-13T04:35:27.962Z,99193.63
2019-01-13T04:37:55.662Z,99194.11
2019-01-13T04:40:23.285Z,99193.33
2019-01-13T04:42:50.912Z,99194.81
2019-01-13T04:45:18.815Z,99188.84
2019-01-13T04:47:46.785Z,99192.92
2019-01-13T04:50:14.766Z,99183.45
2019-01-13T04:52:42.730Z,99174.02
2019-01-13T04:55:10.377Z,99163.72
2019-01-13T04:57:38.071Z,99164.80
2019-01-13T05:00:06.017Z,99150.65
2019-01-13T05:02:33.887Z,99171.44
2019-01-13T05:05:01.865Z,99169.38
2019-01-13T05:07:29.847Z,99163.82
2019-01-13T05:09:57.480Z,99166.15
2019-01-13T05:12:25.360Z,99170.97
2019-01-13T05:14:53.327Z,99178.31
2019-01-13T05:17:21.297Z,99173.83
2019-01-13T05:19:49.269Z,99173.73
2019-01-13T05:22:16.894Z,99167.70
2019-01-13T05:24:44.799Z,99166.31
2019-01-13T05:27:12.775Z,99155.56
2019-01-13T05:29:40.475Z,99166.77
2019-01-13T05:32:08.169Z,99161.11
2019-01-13T05:34:35.801Z,99163.09
2019-01-13T05:37:03.422Z,99156.68
2019-01-13T05:39:31.414Z,99155.74
2019-01-13T05:41:59.369Z,99153.71
2019-01-13T05:44:27.343Z,99156.21
2019-01-13T05:46:55.291Z,99150.73
2019-01-13T05:49:23.264Z,99163.47
2019-01-13T05:51:50.882Z,99163.69
2019-01-13T05:54:18.506Z,99162.23
2019-01-13T05:56:46.454Z,99153.98
2019-01-13T05:59:14.082Z,99161.91
2019-01-13T06:01:48.956Z,99153.59
2019-01-13T06:04:11.588Z,99146.31
2019-01-13T06:06:39.217Z,99138.49
2019-01-13T06:09:07.122Z,99120.13
2019-01-13T06:11:35.096Z,99107.37
2019-01-13T06:14:02.717Z,99115.45
2019-01-13T06:16:30.623Z,99113.52
2019-01-13T06:18:58.590Z,99118.71
2019-01-13T06:21:26.209Z,99108.09
2019-01-13T06:23:54.116Z,99118.00
2019-01-13T06:26:22.085Z,99104.25
2019-01-13T06:28:50.057Z,99116.25
2019-01-13T06:31:18.025Z,99110.56
2019-01-13T06:33:45.646Z,99115.20
2019-01-13T06:36:13.256Z,99108.41
2019-01-13T06:38:40.888Z,99110.09
2019-01-13T06:41:08.779Z,99108.71
2019-01-13T06:43:36.750Z,99116.16
2019-01-13T06:46:04.368Z,99112.59
2019-01-13T06:48:32.005Z,99107.81
2019-01-13T06:50:59.619Z,99100.95
2019-01-13T06:53:27.502Z,99097.53
2019-01-13T06:55:55.130Z,99102.31
2019-01-13T06:58:22.752Z,99105.58
2019-01-13T07:00:50.694Z,99104.00
2019-01-13T07:03:18.318Z,99104.88
2019-01-13T07:05:46.242Z,99110.56
2019-01-13T07:08:13.860Z,99108.56
2019-01-13T07:10:41.756Z,99102.89
2019-01-13T07:13:10.544Z,99105.48
2019-01-13T07:15:38.231Z,99107.84
2019-01-13T07:18:06.193Z,99106.52
2019-01-13T07:20:34.141Z,99098.80
2019-01-13T07:23:02.120Z,99101.39
2019-01-13T07:25:30.080Z,99096.36
2019-01-13T07:27:58.049Z,99090.02
2019-01-13T07:30:26.023Z,99095.30
2019-01-13T07:32:53.641Z,99081.77
2019-01-13T07:35:21.553Z,99078.74
2019-01-13T07:37:49.169Z,99074.49
2019-01-13T07:40:16.800Z,99065.19
2019-01-13T07:42:44.742Z,99064.70
2019-01-13T07:45:12.370Z,99060.64
2019-01-13T07:47:40.275Z,99055.36
2019-01-13T07:50:08.245Z,99059.81
2019-01-13T07:52:36.228Z,99057.57
2019-01-13T07:55:04.184Z,99056.67
2019-01-13T07:57:32.157Z,99049.88
2019-01-13T07:59:59.784Z,99048.89
2019-01-13T08:02:27.683Z,99038.59
2019-01-13T08:04:55.386Z,99048.69
2019-01-13T08:07:23.010Z,99047.55
2019-01-13T08:09:50.977Z,99035.36
2019-01-13T08:12:18.840Z,99045.77
2019-01-13T08:14:46.466Z,99044.81
2019-01-13T08:17:14.374Z,99043.48
2019-01-13T08:19:42.001Z,99041.20
2019-01-13T08:22:10.217Z,99030.58
2019-01-13T08:24:37.844Z,99023.52
2019-01-13T08:27:05.740Z,99016.53
2019-01-13T08:29:33.357Z,99023.95
2019-01-13T08:32:01.269Z,99006.06
2019-01-13T08:34:28.890Z,99017.84
2019-01-13T08:36:56.516Z,99021.80
2019-01-13T08:39:24.457Z,99015.34
2019-01-13T08:41:52.162Z,99006.72
2019-01-13T08:44:19.775Z,99007.97
2019-01-13T08:46:47.756Z,98988.00
2019-01-13T08:49:15.389Z,98988.08
2019-01-13T08:51:43.288Z,98982.81
2019-01-13T08:54:11.254Z,98975.75
2019-01-13T08:56:38.902Z,98969.47
2019-01-13T08:59:06.887Z,98965.39
2019-01-13T09:01:34.859Z,98968.19
2019-01-13T09:04:02.477Z,98962.57
2019-01-13T09:06:30.395Z,98949.80
2019-01-13T09:08:58.357Z,98958.04
2019-01-13T09:11:25.996Z,98944.36
2019-01-13T09:13:53.891Z,98946.93
2019-01-13T09:16:21.865Z,98937.47
2019-01-13T09:18:49.824Z,98926.82
2019-01-13T09:21:17.645Z,98922.20
2019-01-13T09:23:45.669Z,98926.05
2019-01-13T09:26:13.361Z,98917.20
2019-01-13T09:28:40.977Z,98917.84
2019-01-13T09:31:08.853Z,98922.61
2019-01-13T09:33:36.823Z,98908.05
2019-01-13T09:36:04.440Z,98903.25
2019-01-13T09:38:32.362Z,98894.69
2019-01-13T09:41:00.329Z,98889.27
2019-01-13T09:43:28.307Z,98884.55
2019-01-13T09:45:56.367Z,98881.09
2019-01-13T09:48:24.336Z,98883.88
2019-01-13T09:50:52.302Z,98868.48
2019-01-13T09:53:19.924Z,98857.16
2019-01-13T09:55:47.949Z,98861.47
2019-01-13T09:58:15.906Z,98858.48
2019-01-13T10:00:43.531Z,98849.06
2019-01-13T10:03:11.448Z,98839.86
2019-01-13T10:05:39.410Z,98838.75
2019-01-13T10:08:07.273Z,98828.20
2019-01-13T10:10:35.240Z,98828.07
2019-01-13T10:13:03.111Z,98830.70
2019-01-13T10:15:31.080Z,98825.52
2019-01-13T10:17:59.084Z,98825.52
2019-01-13T10:20:27.036Z,98812.39
2019-01-13T10:22:54.987Z,98812.03
2019-01-13T10:25:22.957Z,98799.27
2019-01-13T10:27:50.927Z,98804.87
2019-01-13T10:30:18.894Z,98789.98
2019-01-13T10:32:47.799Z,98789.98
2019-01-13T10:35:16.166Z,98768.22
2019-01-13T10:37:43.790Z,98774.70
2019-01-13T10:40:11.698Z,98770.20
2019-01-13T10:42:39.677Z,98760.89
2019-01-13T10:45:07.641Z,98746.30
2019-01-13T10:47:35.601Z,98741.58
2019-01-13T10:50:03.246Z,98735.22
2019-01-13T10:52:31.252Z,98739.72
2019-01-13T10:54:59.229Z,98727.19
2019-01-13T10:57:27.180Z,98723.11
2019-01-13T10:59:55.145Z,98717.80
2019-01-13T11:02:23.121Z,98706.83
2019-01-13T11:04:51.084Z,98714.92
2019-01-13T11:07:19.053Z,98717.38
2019-01-13T11:09:46.734Z,98693.78
2019-01-13T11:12:14.358Z,98692.91
2019-01-13T11:14:42.249Z,98689.69
2019-01-13T11:17:10.217Z,98661.02
2019-01-13T11:19:38.189Z,98660.66
2019-01-13T11:22:05.806Z,98643.13
2019-01-13T11:24:33.716Z,98642.48
2019-01-13T11:27:01.341Z,98641.73
2019-01-13T11:29:32.736Z,98619.92
2019-01-13T11:31:58.560Z,98620.50
2019-01-13T11:34:26.523Z,98609.09
2019-01-13T11:36:54.484Z,98595.44
2019-01-13T11:39:22.451Z,98595.44
2019-01-13T11:41:50.423Z,98595.97
2019-01-13T11:44:18.394Z,98590.87
2019-01-13T11:46:46.360Z,98570.80
2019-01-13T11:49:13.980Z,98566.54
2019-01-13T11:51:41.917Z,98560.04
2019-01-13T11:54:09.533Z,98555.05
2019-01-13T11:56:37.151Z,98549.05
2019-01-13T11:59:05.085Z,98535.44
2019-01-13T12:01:33.053Z,98529.06
2019-01-13T12:04:01.841Z,98519.62
2019-01-13T12:06:29.546Z,98518.30
2019-01-13T12:08:57.497Z,98508.94
2019-01-13T12:11:25.449Z,98501.66
2019-01-13T12:13:53.074Z,98496.52
2019-01-13T12:16:20.979Z,98494.28
2019-01-13T12:18:48.952Z,98487.45
2019-01-13T12:21:16.571Z,98483.38
2019-01-13T12:23:44.493Z,98475.64
2019-01-13T12:26:12.119Z,98466.84
2019-01-13T12:28:40.012Z,98465.73
2019-01-13T12:31:07.623Z,98465.97
2019-01-13T12:33:35.534Z,98448.83
2019-01-13T12:36:03.505Z,98432.81
2019-01-13T12:38:31.135Z,98432.81
2019-01-13T12:41:00.183Z,98428.00
2019-01-13T12:43:27.857Z,98424.56
2019-01-13T12:45:55.797Z,98409.59
2019-01-13T12:48:23.763Z,98394.16
2019-01-13T12:50:51.449Z,98387.44
2019-01-13T12:53:19.067Z,98378.00
2019-01-13T12:55:46.688Z,98358.40
2019-01-13T12:58:14.314Z,98360.64
2019-01-13T13:00:42.276Z,98349.59
2019-01-13T13:03:10.267Z,98326.92
2019-01-13T13:05:38.223Z,98334.41
2019-01-13T13:08:06.184Z,98316.13
2019-01-13T13:10:33.794Z,98309.27
2019-01-13T13:13:01.416Z,98295.61
2019-01-13T13:15:29.030Z,98275.41
2019-01-13T13:17:56.946Z,98275.41
2019-01-13T13:20:24.628Z,98278.08
2019-01-13T13:22:52.572Z,98270.05
2019-01-13T13:25:20.557Z,98257.25
2019-01-13T13:27:48.508Z,98261.41
2019-01-13T13:30:16.125Z,98255.37
2019-01-13T13:32:43.745Z,98250.01
2019-01-13T13:35:11.373Z,98231.67
2019-01-13T13:37:38.980Z,98231.67
2019-01-13T13:40:06.599Z,98218.39
2019-01-13T13:42:34.486Z,98208.64
2019-01-13T13:45:02.456Z,98196.67
2019-01-13T13:47:30.082Z,98198.80
2019-01-13T13:49:57.985Z,98189.43
2019-01-13T13:52:25.974Z,98194.17
2019-01-13T13:54:53.923Z,98168.19
2019-01-13T13:57:21.901Z,98168.19
2019-01-13T13:59:49.760Z,98169.80
2019-01-13T14:02:17.730Z,98160.97
2019-01-13T14:04:45.352Z,98156.28
2019-01-13T14:07:12.982Z,98156.75
2019-01-13T14:09:40.930Z,98126.37
2019-01-13T14:12:09.208Z,98126.37
2019-01-13T14:14:37.167Z,98151.59
2019-01-13T14:17:04.792Z,98144.39
2019-01-13T14:19:32.412Z,98124.33
2019-01-13T14:22:00.364Z,98130.80
2019-01-13T14:24:27.978Z,98123.46
2019-01-13T14:26:55.905Z,98117.05
2019-01-13T14:29:23.541Z,98108.11
2019-01-13T14:31:51.238Z,98103.77
2019-01-13T14:34:19.207Z,98113.30
2019-01-13T14:36:47.050Z,98107.22
2019-01-13T14:39:14.675Z,98102.56
2019-01-13T14:41:42.281Z,98091.38
2019-01-13T14:44:09.918Z,98085.03
2019-01-13T14:46:37.809Z,98085.95
2019-01-13T14:49:05.445Z,98073.51
2019-01-13T14:51:33.332Z,98066.66
2019-01-13T14:54:01.301Z,98057.23
2019-01-13T14:56:28.925Z,98064.91
2019-01-13T14:58:56.550Z,98055.89
2019-01-13T15:01:24.498Z,98053.78
2019-01-13T15:03:52.460Z,98043.52
2019-01-13T15:06:20.072Z,98058.48
2019-01-13T15:08:47.696Z,98041.70
2019-01-13T15:11:15.316Z,98051.19
2019-01-13T15:13:42.943Z,98053.31
2019-01-13T15:16:10.882Z,98048.54
2019-01-13T15:18:38.860Z,98048.54
2019-01-13T15:21:06.817Z,98047.68
2019-01-13T15:23:34.444Z,98039.91
2019-01-13T15:26:02.058Z,98044.09
2019-01-13T15:28:30.012Z,98046.79
2019-01-13T15:30:57.877Z,98048.34
2019-01-13T15:33:25.851Z,98044.82
2019-01-13T15:35:53.816Z,98044.82
2019-01-13T15:38:21.687Z,98031.16
2019-01-13T15:40:49.299Z,98036.68
2019-01-13T15:43:16.922Z,98038.80
2019-01-13T15:45:44.879Z,98032.33
2019-01-13T15:48:12.844Z,98028.42
2019-01-13T15:50:40.460Z,98033.20
2019-01-13T15:53:08.375Z,98015.66
2019-01-13T15:55:36.349Z,98018.19
2019-01-13T15:58:04.333Z,98004.45
2019-01-13T16:00:31.947Z,98004.45
2019-01-13T16:02:59.866Z,97998.09
2019-01-13T16:05:27.822Z,97998.09
2019-01-13T16:07:55.786Z,97980.18
2019-01-13T16:10:23.396Z,97980.18
2019-01-13T16:12:51.315Z,97968.61
2019-01-13T16:15:19.206Z,97968.61
2019-01-13T16:17:46.825Z,97966.41
2019-01-13T16:20:14.712Z,97987.33
2019-01-13T16:22:42.684Z,97984.37
2019-01-13T16:25:10.649Z,97972.12
2019-01-13T16:27:38.259Z,97971.25
2019-01-13T16:30:06.182Z,97966.28
2019-01-13T16:32:33.864Z,97943.23
2019-01-13T16:35:01.818Z,97948.35
2019-01-13T16:37:29.431Z,97950.08
2019-01-13T16:39:57.057Z,97950.08
2019-01-13T16:42:25.007Z,97936.45
2019-01-13T16:44:52.971Z,97923.58
2019-01-13T16:47:20.590Z,97921.87
2019-01-13T16:49:48.501Z,97901.41
2019-01-13T16:52:16.110Z,97901.41
2019-01-13T16:54:44.036Z,97894.56
2019-01-13T16:57:11.648Z,97889.44
2019-01-13T16:59:39.562Z,97887.74
2019-01-13T17:02:07.445Z,97887.74
2019-01-13T17:04:35.402Z,97852.61
2019-01-13T17:07:03.017Z,97852.61
2019-01-13T17:09:30.648Z,97865.92
2019-01-13T17:11:58.600Z,97859.10
2019-01-13T17:14:26.222Z,97845.84
2019-01-13T17:16:54.083Z,97845.82
2019-01-13T17:19:21.989Z,97835.62
2019-01-13T17:21:49.958Z,97833.08
2019-01-13T17:24:17.926Z,97824.00
2019-01-13T17:26:45.537Z,97824.00
2019-01-13T17:29:13.459Z,97839.06
2019-01-13T17:31:41.442Z,97834.71
2019-01-13T17:34:09.365Z,97821.37
2019-01-13T17:36:37.266Z,97817.04
2019-01-13T17:39:04.910Z,97808.89
2019-01-13T17:41:32.825Z,97804.67
2019-01-13T17:44:00.764Z,97808.97
2019-01-13T17:46:28.377Z,97808.89
2019-01-13T17:48:56.013Z,97793.03
2019-01-13T17:51:23.976Z,97796.04
2019-01-13T17:53:51.596Z,97794.77
2019-01-13T17:56:19.218Z,97794.77
2019-01-13T17:58:46.848Z,97779.38
2019-01-13T18:01:14.466Z,97779.38
2019-01-13T18:03:42.380Z,97772.19
2019-01-13T18:06:09.993Z,97763.16
2019-01-13T18:08:37.868Z,97760.17
2019-01-13T18:11:05.505Z,97739.27
2019-01-13T18:13:33.457Z,97737.49
2019-01-13T18:16:01.396Z,97740.94
2019-01-13T18:18:29.265Z,97722.56
2019-01-13T18:20:56.884Z,97737.13
2019-01-13T18:23:24.798Z,97702.86
2019-01-13T18:25:52.765Z,97717.05
2019-01-13T18:28:20.451Z,97705.96
2019-01-13T18:30:48.150Z,97703.85
2019-01-13T18:33:15.830Z,97703.85
2019-01-13T18:35:43.725Z,97691.81
2019-01-13T18:38:11.343Z,97692.70
2019-01-13T18:40:39.250Z,97692.70
2019-01-13T18:43:07.121Z,97684.16
2019-01-13T18:45:35.089Z,97685.89
2019-01-13T18:48:02.702Z,97679.89
2019-01-13T18:50:30.620Z,97673.89
2019-01-13T18:52:58.596Z,97684.20
2019-01-13T18:55:26.214Z,97680.78
2019-01-13T18:57:54.119Z,97670.92
2019-01-13T19:00:22.084Z,97654.23
2019-01-13T19:02:49.700Z,97674.80
2019-01-13T19:05:17.618Z,97674.80
2019-01-13T19:07:45.619Z,97653.80
2019-01-13T19:10:13.249Z,97665.38
2019-01-13T19:12:41.216Z,97652.55
2019-01-13T19:15:08.839Z,97658.96
2019-01-13T19:17:36.453Z,97654.23
2019-01-13T19:20:04.068Z,97641.80
2019-01-13T19:22:31.982Z,97646.95
2019-01-13T19:24:59.942Z,97628.12
2019-01-13T19:27:27.814Z,97619.56
2019-01-13T19:29:55.782Z,97619.56
2019-01-13T19:32:23.397Z,97613.54
2019-01-13T19:34:51.015Z,97630.67
2019-01-13T19:37:18.971Z,97630.67
2019-01-13T19:39:46.941Z,97624.26
2019-01-13T19:42:14.546Z,97624.27
2019-01-13T19:44:42.163Z,97628.13
2019-01-13T19:47:09.775Z,97613.96
2019-01-13T19:49:37.390Z,97597.21
2019-01-13T19:52:05.354Z,97592.96
2019-01-13T19:54:32.988Z,97604.55
2019-01-13T19:57:00.599Z,97595.55
2019-01-13T19:59:28.205Z,97596.41
2019-01-13T20:01:55.825Z,97623.41
2019-01-13T20:04:23.678Z,97613.55
2019-01-13T20:06:51.293Z,97636.24
2019-01-13T20:09:18.919Z,97650.84
2019-01-13T20:11:46.857Z,97665.41
2019-01-13T20:14:14.465Z,97688.96
2019-01-13T20:16:43.258Z,97681.69
2019-01-13T20:19:10.880Z,97688.08
2019-01-13T20:21:38.835Z,97703.05
2019-01-13T20:24:06.449Z,97706.45
2019-01-13T20:26:34.072Z,97706.45
2019-01-13T20:29:01.676Z,97711.59
2019-01-13T20:31:29.590Z,97720.15
2019-01-13T20:33:57.560Z,97725.72
2019-01-13T20:36:25.549Z,97722.28
2019-01-13T20:38:53.169Z,97740.66
2019-01-13T20:41:21.079Z,97740.66
2019-01-13T20:43:48.685Z,97730.78
2019-01-13T20:46:16.592Z,97734.63
2019-01-13T20:48:45.569Z,97747.02
2019-01-13T20:51:13.659Z,97742.30
2019-01-13T20:53:41.626Z,97749.20
2019-01-13T20:56:09.595Z,97754.28
2019-01-13T20:58:37.567Z,97742.26
2019-01-13T21:01:05.537Z,97751.61
2019-01-13T21:03:33.504Z,97749.08
2019-01-13T21:06:01.475Z,97752.93
2019-01-13T21:08:29.160Z,97753.31
2019-01-13T21:10:57.119Z,97762.32
2019-01-13T21:13:25.075Z,97762.33
2019-01-13T21:15:53.045Z,97761.09
2019-01-13T21:18:21.015Z,97764.88
2019-01-13T21:20:48.634Z,97768.31
2019-01-13T21:23:16.541Z,97766.17
2019-01-13T21:25:44.521Z,97758.42
2019-01-13T21:28:12.140Z,97767.87
2019-01-13T21:30:40.042Z,97767.36
2019-01-13T21:33:08.013Z,97767.36
2019-01-13T21:35:35.631Z,97768.64
2019-01-13T21:38:03.556Z,97773.80
2019-01-13T21:40:31.515Z,97766.87
2019-01-13T21:42:59.376Z,97764.73
2019-01-13T22:00:02.781Z,97761.75
2019-01-13T22:02:30.745Z,97752.36
2019-01-13T22:04:58.717Z,97776.69
2019-01-13T22:07:26.688Z,97767.70
2019-01-13T22:09:54.655Z,97756.89
2019-01-13T22:12:22.627Z,97756.89
2019-01-13T22:14:50.594Z,97762.91
2019-01-13T22:17:18.559Z,97761.58
2019-01-13T22:19:46.432Z,97746.23
2019-01-13T22:22:14.402Z,97746.23
2019-01-13T22:24:42.370Z,97751.75
2019-01-13T22:27:10.338Z,97756.44
2019-01-13T22:29:38.311Z,97761.20
2019-01-13T22:32:05.923Z,97762.48
2019-01-13T22:34:33.839Z,97766.33
2019-01-13T22:37:01.806Z,97762.95
2019-01-13T22:39:29.676Z,97759.20
2019-01-13T22:41:57.648Z,97748.97
2019-01-13T22:44:25.268Z,97760.09
2019-01-13T22:46:53.177Z,97753.70
2019-01-13T22:49:21.040Z,97753.33
2019-01-13T22:51:49.038Z,97753.33
2019-01-13T22:54:16.981Z,97755.89
2019-01-13T22:56:44.952Z,97759.35
2019-01-13T22:59:12.565Z,97762.75
2019-01-13T23:01:42.053Z,97763.16
2019-01-13T23:04:09.747Z,97763.16
2019-01-13T23:06:37.371Z,97781.13
2019-01-13T23:09:05.311Z,97769.09
2019-01-13T23:11:33.292Z,97776.81
2019-01-13T23:14:01.150Z,97769.55
2019-01-13T23:16:29.118Z,97769.98
2019-01-13T23:18:56.984Z,97769.98
2019-01-13T23:21:24.606Z,97768.34
2019-01-13T23:23:52.515Z,97772.19
2019-01-13T23:26:20.487Z,97769.20
2019-01-13T23:28:48.356Z,97764.94
2019-01-13T23:31:15.989Z,97773.09
2019-01-13T23:33:43.880Z,97784.17
2019-01-13T23:36:11.853Z,97788.88
2019-01-13T23:38:39.838Z,97796.16
2019-01-13T23:41:07.443Z,97795.61
2019-01-13T23:43:35.349Z,97795.61
2019-01-13T23:46:03.316Z,97807.43
2019-01-13T23:48:30.959Z,97807.43
2019-01-13T23:50:58.870Z,97796.30
2019-01-13T23:53:26.819Z,97790.77
2019-01-13T23:55:54.435Z,97803.55
2019-01-13T23:58:22.053Z,97807.75
